Time;durP1;ratioP1;P1;durP2;ratioP2;P2;SDS_P1;SDS_P2;PMS_P1;PMS_P2;Temp;Humidity;BMP_temperature;BMP_pressure;BME280_temperature;BME280_humidity;BME280_pressure;Samples;Min_cycle;Max_cycle;Signal;HPM_P1;HPM_P2
2021/06/25 00:01:07;;;;;;;1.70;1.02;;;15.00;99.90;;;;;;8360862;28;20050;-67
2021/06/25 00:05:09;;;;;;;1.15;1.00;;;14.90;99.90;;;;;;8361164;28;20025;-68
2021/06/25 00:09:09;;;;;;;1.95;1.50;;;14.90;99.90;;;;;;8360376;28;20063;-68
2021/06/25 00:13:10;;;;;;;1.52;1.30;;;14.80;99.90;;;;;;8360748;28;20017;-67
2021/06/25 00:17:11;;;;;;;3.20;1.52;;;14.90;99.90;;;;;;8342747;28;20112;-67
2021/06/25 00:21:11;;;;;;;149.90;139.82;;;14.90;99.90;;;;;;8360030;28;20033;-68
2021/06/25 00:25:12;;;;;;;2.55;1.30;;;14.90;99.90;;;;;;8360439;28;20029;-68
2021/06/25 00:29:13;;;;;;;1.55;1.30;;;15.00;99.90;;;;;;8342446;28;20037;-67
2021/06/25 00:33:13;;;;;;;1.63;1.33;;;15.10;99.90;;;;;;8342346;28;20111;-67
2021/06/25 00:37:14;;;;;;;2.85;1.52;;;15.10;99.90;;;;;;8342537;28;20021;-68
2021/06/25 00:41:15;;;;;;;88.72;83.22;;;15.10;99.90;;;;;;8360036;28;20043;-67
2021/06/25 00:45:19;;;;;;;530.08;402.67;;;15.10;99.90;;;;;;8358817;28;20029;-67
2021/06/25 00:49:20;;;;;;;359.60;331.90;;;15.10;99.90;;;;;;8359504;28;20036;-67
2021/06/25 00:53:20;;;;;;;519.72;400.45;;;15.20;99.90;;;;;;8359480;28;20388;-68
2021/06/25 00:57:21;;;;;;;1.70;1.55;;;15.20;99.90;;;;;;8359078;28;20021;-67
2021/06/25 01:01:21;;;;;;;1.73;1.58;;;15.10;99.90;;;;;;8359627;28;20025;-67
2021/06/25 01:05:22;;;;;;;48.25;45.00;;;15.00;99.90;;;;;;8359161;28;20071;-67
2021/06/25 01:09:23;;;;;;;522.50;407.48;;;15.00;99.90;;;;;;8358726;28;20035;-68
2021/06/25 01:13:25;;;;;;;522.90;405.40;;;15.00;99.90;;;;;;8359695;28;20016;-67
2021/06/25 01:17:37;;;;;;;524.38;401.02;;;15.00;99.90;;;;;;8358828;28;20048;-67
2021/06/25 01:21:37;;;;;;;523.58;397.98;;;14.90;99.90;;;;;;8358310;28;20123;-67
2021/06/25 01:25:39;;;;;;;521.30;397.90;;;14.80;99.90;;;;;;8358523;28;20036;-67
2021/06/25 01:29:39;;;;;;;521.83;404.48;;;14.70;99.90;;;;;;8340188;28;20084;-67
2021/06/25 01:33:40;;;;;;;519.17;394.73;;;14.70;99.90;;;;;;8358251;28;20080;-67
2021/06/25 01:37:41;;;;;;;515.05;393.38;;;14.70;99.90;;;;;;8358292;28;20083;-68
2021/06/25 01:41:41;;;;;;;519.97;391.00;;;14.70;99.90;;;;;;8358653;28;20025;-67
2021/06/25 01:45:43;;;;;;;517.67;389.70;;;14.70;99.90;;;;;;8383845;22;20072;-67
2021/06/25 01:49:44;;;;;;;519.10;391.33;;;14.60;99.90;;;;;;8361012;28;20025;-66
2021/06/25 01:53:44;;;;;;;517.92;390.17;;;14.60;99.90;;;;;;8360809;28;20032;-67
2021/06/25 01:57:45;;;;;;;520.35;394.35;;;14.70;99.90;;;;;;8358807;28;20044;-66
2021/06/25 02:01:46;;;;;;;515.30;392.73;;;14.70;99.90;;;;;;8361901;28;20040;-66
2021/06/25 02:05:46;;;;;;;515.72;395.88;;;14.70;99.90;;;;;;8388910;28;20044;-66
2021/06/25 02:09:47;;;;;;;515.90;393.88;;;14.80;99.90;;;;;;8409956;28;20025;-67
2021/06/25 02:13:48;;;;;;;514.33;397.45;;;14.90;99.90;;;;;;8394769;28;20046;-67
2021/06/25 02:17:48;;;;;;;513.45;396.45;;;14.90;99.90;;;;;;8359698;28;20086;-66
2021/06/25 02:21:49;;;;;;;514.88;400.00;;;14.90;99.90;;;;;;8334774;28;20131;-66
2021/06/25 02:25:50;;;;;;;514.88;400.42;;;14.90;99.90;;;;;;8359537;28;20033;-66
2021/06/25 02:29:50;;;;;;;517.58;404.65;;;14.80;99.90;;;;;;8361290;28;20025;-66
2021/06/25 02:33:51;;;;;;;515.58;404.98;;;14.80;99.90;;;;;;8372650;28;20107;-66
2021/06/25 02:37:55;;;;;;;513.95;402.00;;;14.90;99.90;;;;;;8393024;28;20398;-67
2021/06/25 02:41:55;;;;;;;514.05;405.15;;;14.90;99.90;;;;;;8392862;28;20051;-67
2021/06/25 02:45:56;;;;;;;518.60;409.45;;;14.90;99.90;;;;;;8391967;28;20529;-67
2021/06/25 02:49:56;;;;;;;513.75;409.63;;;14.90;99.90;;;;;;8392219;28;20056;-66
2021/06/25 02:53:57;;;;;;;516.50;410.88;;;14.90;99.90;;;;;;8376305;28;20048;-66
2021/06/25 02:57:58;;;;;;;521.70;417.65;;;15.00;99.90;;;;;;8359402;28;20425;-66
2021/06/25 03:01:58;;;;;;;519.53;418.15;;;14.80;99.90;;;;;;8358422;28;20032;-67
2021/06/25 03:05:59;;;;;;;522.00;419.20;;;14.90;99.90;;;;;;8387765;28;20050;-66
2021/06/25 03:09:59;;;;;;;520.45;418.15;;;14.90;99.90;;;;;;8398764;28;20033;-66
2021/06/25 03:14:00;;;;;;;521.65;440.77;;;14.90;99.90;;;;;;8398817;28;20017;-66
2021/06/25 03:18:00;;;;;;;523.85;421.38;;;14.80;99.90;;;;;;8397717;28;20028;-66
2021/06/25 03:22:01;;;;;;;522.80;417.27;;;14.80;99.90;;;;;;8398491;28;20044;-67
2021/06/25 03:26:02;;;;;;;528.03;423.65;;;14.80;99.90;;;;;;8365101;28;20076;-66
2021/06/25 03:30:07;;;;;;;525.92;420.38;;;14.80;99.90;;;;;;8363859;28;20371;-66
2021/06/25 03:34:08;;;;;;;530.72;425.35;;;14.70;99.90;;;;;;8379095;28;20048;-67
2021/06/25 03:38:09;;;;;;;527.75;425.02;;;14.70;99.90;;;;;;8397499;28;20029;-66
2021/06/25 03:42:09;;;;;;;529.10;422.52;;;14.60;99.90;;;;;;8398768;28;20074;-67
2021/06/25 03:46:10;;;;;;;529.47;427.60;;;14.60;99.90;;;;;;8398771;28;20025;-66
2021/06/25 03:50:12;;;;;;;527.33;422.05;;;14.60;99.90;;;;;;8398250;28;20017;-66
2021/06/25 03:54:13;;;;;;;527.22;417.63;;;14.60;99.90;;;;;;8379408;28;20017;-67
2021/06/25 03:58:13;;;;;;;521.55;407.08;;;14.70;99.90;;;;;;8365293;28;20033;-66
2021/06/25 04:02:14;;;;;;;522.10;405.83;;;14.80;99.90;;;;;;8364873;28;20554;-66
2021/06/25 04:06:15;;;;;;;519.83;399.25;;;14.80;99.90;;;;;;8394369;28;20119;-66
2021/06/25 04:10:16;;;;;;;516.00;395.30;;;14.90;99.90;;;;;;8397650;28;20439;-66
2021/06/25 04:14:16;;;;;;;515.85;398.67;;;15.00;99.90;;;;;;8396457;28;20024;-67
2021/06/25 04:18:17;;;;;;;521.13;405.10;;;15.00;99.90;;;;;;8397945;28;20071;-67
2021/06/25 04:22:19;;;;;;;521.42;401.80;;;15.10;99.90;;;;;;8395297;28;20048;-66
2021/06/25 04:26:20;;;;;;;521.38;402.17;;;15.10;99.90;;;;;;8363136;28;20025;-66
2021/06/25 04:30:21;;;;;;;520.22;403.88;;;15.20;99.90;;;;;;8361236;28;20021;-67
2021/06/25 04:34:22;;;;;;;523.53;412.48;;;15.20;99.90;;;;;;8344678;28;20430;-67
2021/06/25 04:38:22;;;;;;;526.08;414.50;;;15.20;99.90;;;;;;8331494;28;20029;-66
2021/06/25 04:42:23;;;;;;;525.20;413.17;;;15.20;99.90;;;;;;8332056;28;20025;-67
2021/06/25 04:46:23;;;;;;;520.78;399.65;;;15.30;99.90;;;;;;8331183;28;20072;-65
2021/06/25 04:50:24;;;;;;;519.05;398.13;;;15.30;99.90;;;;;;8340276;28;20120;-67
2021/06/25 04:54:24;;;;;;;520.13;404.98;;;15.40;99.90;;;;;;8351299;28;20021;-66
2021/06/25 04:58:28;;;;;;;522.30;406.10;;;15.50;99.90;;;;;;8331119;28;20048;-66
2021/06/25 05:02:28;;;;;;;539.53;422.23;;;15.50;99.90;;;;;;8348235;28;20064;-64
2021/06/25 05:06:29;;;;;;;529.03;422.17;;;15.30;99.90;;;;;;8357926;28;20057;-65
2021/06/25 05:10:30;;;;;;;533.47;427.95;;;15.20;99.90;;;;;;8361717;28;20025;-65
2021/06/25 05:14:30;;;;;;;532.92;426.48;;;15.30;99.90;;;;;;8352432;28;20033;-65
2021/06/25 05:18:31;;;;;;;529.88;417.23;;;15.30;99.90;;;;;;8348507;28;20025;-65
2021/06/25 05:22:32;;;;;;;529.30;413.45;;;15.30;99.90;;;;;;8362147;28;20036;-65
2021/06/25 05:26:33;;;;;;;529.10;406.73;;;15.20;99.90;;;;;;8354310;28;20025;-65
2021/06/25 05:30:34;;;;;;;8.82;5.95;;;15.30;99.90;;;;;;8360752;28;20067;-65
2021/06/25 05:34:35;;;;;;;537.47;407.25;;;15.40;99.90;;;;;;8369351;28;20027;-65
2021/06/25 05:38:35;;;;;;;8.63;6.07;;;15.50;99.90;;;;;;8393249;28;20028;-65
2021/06/25 05:42:36;;;;;;;8.48;6.05;;;15.90;99.90;;;;;;8393517;28;20036;-64
2021/06/25 05:46:37;;;;;;;6.97;4.95;;;16.10;99.90;;;;;;8346624;28;20641;-66
2021/06/25 05:50:38;;;;;;;8.48;5.63;;;16.20;99.90;;;;;;8343478;28;20021;-66
2021/06/25 05:54:38;;;;;;;7.55;5.50;;;16.30;99.90;;;;;;8345899;28;20017;-66
2021/06/25 05:58:39;;;;;;;9.48;5.50;;;16.50;99.90;;;;;;8338749;28;20055;-65
2021/06/25 06:02:39;;;;;;;6.78;4.10;;;16.30;99.90;;;;;;8338228;28;20032;-65
2021/06/25 06:06:40;;;;;;;7.57;6.00;;;16.30;99.90;;;;;;8343378;28;20029;-65
2021/06/25 06:10:41;;;;;;;6.65;5.30;;;16.20;99.90;;;;;;8341593;28;20043;-65
2021/06/25 06:14:41;;;;;;;7.55;5.63;;;16.30;99.90;;;;;;8355536;28;20021;-66
2021/06/25 06:18:49;;;;;;;6.40;5.40;;;16.10;99.90;;;;;;8342088;28;20531;-64
2021/06/25 06:31:32;;;;;;;7.40;5.50;;;16.40;99.90;;;;;;8357179;28;20087;-67
2021/06/25 06:35:33;;;;;;;6.68;5.05;;;16.40;99.90;;;;;;8345909;28;20021;-65
2021/06/25 06:39:33;;;;;;;9.18;5.47;;;16.60;99.90;;;;;;8357324;28;20063;-64
2021/06/25 06:43:37;;;;;;;7.10;4.82;;;16.70;99.90;;;;;;8357377;28;20037;-65
2021/06/25 06:47:38;;;;;;;4.82;4.32;;;17.00;99.90;;;;;;8346794;28;20403;-66
2021/06/25 06:51:39;;;;;;;7.05;4.95;;;17.20;99.90;;;;;;8357017;28;20032;-66
2021/06/25 06:55:43;;;;;;;5.75;4.70;;;17.40;99.90;;;;;;8343675;28;20027;-65
2021/06/25 06:59:43;;;;;;;5.38;4.18;;;17.50;99.90;;;;;;8348629;28;20036;-66
2021/06/25 07:03:44;;;;;;;6.30;3.95;;;17.40;99.90;;;;;;8344176;28;20092;-65
2021/06/25 07:07:44;;;;;;;5.90;4.10;;;17.40;99.90;;;;;;8348013;28;20025;-66
2021/06/25 07:11:45;;;;;;;5.10;4.53;;;17.60;99.90;;;;;;8353654;28;20052;-66
2021/06/25 07:15:45;;;;;;;4.85;3.97;;;17.60;99.90;;;;;;8345278;28;20407;-65
2021/06/25 07:19:48;;;;;;;5.78;4.20;;;17.90;99.90;;;;;;8334310;28;20770;-66
2021/06/25 07:23:48;;;;;;;53.65;50.03;;;18.10;99.90;;;;;;8344308;28;20045;-65
2021/06/25 07:27:49;;;;;;;5.88;3.83;;;18.30;99.90;;;;;;8343638;28;20391;-65
2021/06/25 07:31:50;;;;;;;4.93;3.72;;;18.40;99.90;;;;;;8346056;28;20068;-65
2021/06/25 07:35:50;;;;;;;31.08;28.00;;;18.10;99.90;;;;;;8348111;28;20037;-65
2021/06/25 07:39:51;;;;;;;4.90;3.80;;;17.90;99.90;;;;;;8347023;28;20096;-64
2021/06/25 07:43:51;;;;;;;4.80;4.30;;;18.10;99.90;;;;;;8376059;22;20483;-65
2021/06/25 07:47:52;;;;;;;5.40;4.07;;;18.10;99.90;;;;;;8377118;28;20131;-66
2021/06/25 07:51:53;;;;;;;4.55;4.00;;;18.00;99.90;;;;;;8377362;28;20024;-66
2021/06/25 07:55:53;;;;;;;4.93;3.70;;;18.10;99.90;;;;;;8370629;28;20061;-67
2021/06/25 07:59:54;;;;;;;4.22;3.42;;;17.90;99.90;;;;;;8358079;28;20056;-66
2021/06/25 08:03:54;;;;;;;4.75;3.80;;;17.80;99.90;;;;;;8359679;28;20032;-66
2021/06/25 08:07:55;;;;;;;6.50;4.22;;;17.90;99.90;;;;;;8378556;28;20033;-66
2021/06/25 08:11:55;;;;;;;5.50;3.70;;;18.00;99.90;;;;;;8377290;28;20028;-66
2021/06/25 08:15:56;;;;;;;3.78;3.47;;;17.80;99.90;;;;;;8381532;28;20029;-67
2021/06/25 08:19:56;;;;;;;3.65;3.30;;;18.30;99.90;;;;;;8384212;28;20032;-66
2021/06/25 08:23:57;;;;;;;2.42;2.20;;;18.90;99.90;;;;;;8371472;28;20039;-66
2021/06/25 08:27:58;;;;;;;2.92;2.60;;;19.30;99.90;;;;;;8354396;28;20495;-67
2021/06/25 08:31:59;;;;;;;2.78;2.58;;;19.10;99.90;;;;;;8371615;28;20215;-67
2021/06/25 08:35:59;;;;;;;2.97;2.67;;;18.80;99.90;;;;;;8375884;28;20150;-66
2021/06/25 08:40:00;;;;;;;3.03;2.20;;;18.80;99.90;;;;;;8372582;28;20028;-67
2021/06/25 08:44:02;;;;;;;2.97;2.38;;;18.80;99.90;;;;;;8366483;28;20037;-66
2021/06/25 08:48:06;;;;;;;2.67;2.28;;;18.90;99.90;;;;;;8370443;28;20040;-67
2021/06/25 08:52:07;;;;;;;2.47;2.28;;;19.00;99.90;;;;;;8354656;28;20029;-67
2021/06/25 08:56:07;;;;;;;2.50;2.30;;;19.40;99.90;;;;;;8372450;28;20122;-66
2021/06/25 09:00:14;;;;;;;2.47;2.28;;;19.70;99.90;;;;;;8367070;28;20475;-66
2021/06/25 09:04:30;;;;;;;3.58;2.30;;;19.40;99.90;;;;;;8374860;28;20052;-67
2021/06/25 09:08:30;;;;;;;537.70;404.10;;;19.20;99.90;;;;;;8381922;28;20028;-67
2021/06/25 09:12:31;;;;;;;495.27;407.42;;;20.20;99.90;;;;;;8379102;28;20494;-66
2021/06/25 09:16:34;;;;;;;500.70;400.70;;;20.50;99.90;;;;;;8358321;28;20063;-72
2021/06/25 09:20:45;;;;;;;519.25;388.45;;;20.20;99.90;;;;;;8348120;28;20505;-70
2021/06/25 09:25:07;;;;;;;542.22;386.67;;;19.40;99.90;;;;;;8364831;28;20024;-70
2021/06/25 09:29:20;;;;;;;540.80;386.17;;;19.20;99.90;;;;;;8372336;28;20403;-70
2021/06/25 09:33:22;;;;;;;534.17;382.70;;;19.20;99.90;;;;;;8370101;28;20103;-70
2021/06/25 09:37:22;;;;;;;537.45;381.27;;;19.40;99.90;;;;;;8378557;28;20390;-70
2021/06/25 09:41:23;;;;;;;513.25;401.67;;;20.00;99.90;;;;;;8362045;28;20040;-70
2021/06/25 09:45:25;;;;;;;508.38;395.58;;;20.60;99.90;;;;;;8371672;28;20039;-70
2021/06/25 09:49:27;;;;;;;513.13;399.63;;;20.70;99.90;;;;;;8357503;28;20033;-70
2021/06/25 09:53:28;;;;;;;514.70;403.58;;;20.90;99.90;;;;;;8356656;28;20013;-69
2021/06/25 09:57:29;;;;;;;518.20;402.75;;;20.30;99.90;;;;;;8338500;28;20502;-70
2021/06/25 10:01:36;;;;;;;511.45;397.85;;;20.40;99.90;;;;;;8338944;28;20116;-70
2021/06/25 10:05:36;;;;;;;513.35;400.40;;;20.20;99.90;;;;;;8377212;28;20457;-70
2021/06/25 10:09:37;;;;;;;512.70;396.15;;;20.40;99.90;;;;;;8358987;28;20166;-69
2021/06/25 10:13:39;;;;;;;516.58;400.45;;;20.70;99.90;;;;;;8370725;28;20025;-68
2021/06/25 10:17:41;;;;;;;516.90;396.00;;;21.30;99.90;;;;;;8394427;28;20108;-69
2021/06/25 10:21:42;;;;;;;513.95;398.60;;;21.00;99.90;;;;;;8382456;28;20087;-67
2021/06/25 10:25:44;;;;;;;516.92;402.45;;;21.10;99.90;;;;;;8378111;28;20566;-67
2021/06/25 10:29:46;;;;;;;2.33;1.77;;;21.10;99.90;;;;;;8375953;28;20142;-68
2021/06/25 10:33:47;;;;;;;2.30;1.98;;;21.20;99.90;;;;;;8384458;28;20025;-68
2021/06/25 10:37:48;;;;;;;55.55;52.10;;;21.10;99.90;;;;;;8361448;28;20083;-66
2021/06/25 10:41:57;;;;;;;31.25;28.92;;;21.90;99.90;;;;;;8361041;28;20083;-66
2021/06/25 10:45:58;;;;;;;473.55;434.70;;;22.10;99.90;;;;;;8360513;28;20067;-66
2021/06/25 10:49:58;;;;;;;484.13;445.98;;;22.50;99.90;;;;;;8361593;28;20040;-66
2021/06/25 10:54:22;;;;;;;481.63;442.60;;;23.00;99.90;;;;;;8361563;28;20021;-66
2021/06/25 10:58:24;;;;;;;153.18;144.02;;;22.90;99.90;;;;;;8366563;28;20041;-67
2021/06/25 11:02:44;;;;;;;471.15;429.85;;;22.50;99.90;;;;;;8363737;28;20104;-66
2021/06/25 11:06:48;;;;;;;318.67;295.13;;;21.90;99.90;;;;;;8329680;28;20030;-66
2021/06/25 11:10:54;;;;;;;0.95;0.95;;;21.70;99.90;;;;;;8330080;28;20096;-66
2021/06/25 11:15:04;;;;;;;1.30;1.20;;;21.90;99.90;;;;;;8329040;28;20108;-66
2021/06/25 11:19:05;;;;;;;2.08;0.93;;;22.20;99.90;;;;;;8345460;28;20037;-65
2021/06/25 11:23:18;;;;;;;1.85;1.40;;;21.70;99.90;;;;;;8386583;28;20055;-66
2021/06/25 11:27:18;;;;;;;1.35;1.00;;;21.00;99.90;;;;;;8360750;28;20111;-65
2021/06/25 11:31:27;;;;;;;1.67;1.10;;;20.80;99.90;;;;;;8362513;28;20391;-66
2021/06/25 11:35:35;;;;;;;1.30;1.20;;;20.80;99.90;;;;;;8386638;28;20482;-65
2021/06/25 11:39:37;;;;;;;0.95;0.85;;;20.40;99.90;;;;;;8350400;28;20029;-65
2021/06/25 11:43:38;;;;;;;1.40;1.30;;;20.50;99.90;;;;;;8379379;28;20063;-65
2021/06/25 11:47:43;;;;;;;1.67;1.25;;;20.40;99.90;;;;;;8358078;28;20032;-65
2021/06/25 11:51:44;;;;;;;1.40;1.30;;;20.60;99.90;;;;;;8388317;28;20016;-65
2021/06/25 11:55:54;;;;;;;2.08;1.63;;;20.40;99.90;;;;;;8344729;28;20067;-66
2021/06/25 11:59:55;;;;;;;1.23;1.13;;;20.60;99.90;;;;;;8363754;28;20039;-65
2021/06/25 12:03:57;;;;;;;1.45;1.23;;;20.90;99.90;;;;;;8382056;28;20025;-65
2021/06/25 12:08:10;;;;;;;1.40;1.30;;;20.80;99.90;;;;;;8394279;28;20027;-66
2021/06/25 12:12:18;;;;;;;1.83;1.40;;;21.30;99.90;;;;;;8376256;28;20071;-65
2021/06/25 12:16:19;;;;;;;1.75;1.65;;;22.00;99.90;;;;;;8393697;28;20051;-66
2021/06/25 12:20:29;;;;;;;1.70;1.60;;;22.70;99.90;;;;;;8393622;28;20025;-65
2021/06/25 12:24:30;;;;;;;1.90;1.73;;;24.10;99.90;;;;;;8357200;28;20024;-66
2021/06/25 12:28:30;;;;;;;2.35;1.50;;;25.40;99.90;;;;;;8374660;28;20060;-66
2021/06/25 12:32:31;;;;;;;1.83;1.70;;;24.10;99.90;;;;;;8393489;28;20024;-66
2021/06/25 12:36:32;;;;;;;4.25;1.50;;;22.10;99.90;;;;;;8366112;28;20566;-65
2021/06/25 12:40:40;;;;;;;2.50;1.30;;;20.70;99.90;;;;;;8358615;28;20063;-66
2021/06/25 12:44:44;;;;;;;1.42;1.20;;;19.80;99.90;;;;;;8357427;28;20028;-65
2021/06/25 12:48:58;;;;;;;1.60;1.50;;;19.20;99.90;;;;;;8358065;28;20029;-66
2021/06/25 12:53:19;;;;;;;1.88;1.67;;;18.90;99.90;;;;;;8359930;28;20024;-66
2021/06/25 12:57:20;;;;;;;1.30;1.20;;;19.10;99.90;;;;;;8341550;28;20111;-65
2021/06/25 13:01:22;;;;;;;2.08;1.60;;;19.20;99.90;;;;;;8359201;28;20693;-65
2021/06/25 13:05:36;;;;;;;1.83;1.40;;;19.60;99.90;;;;;;8361560;28;20025;-66
2021/06/25 13:09:39;;;;;;;1.50;1.40;;;19.90;99.90;;;;;;8366195;28;20025;-65
2021/06/25 13:13:40;;;;;;;1.50;1.30;;;20.20;99.90;;;;;;8378361;28;20017;-66
2021/06/25 13:17:41;;;;;;;2.30;1.40;;;20.20;99.90;;;;;;8363267;28;20029;-66
2021/06/25 13:21:53;;;;;;;1.50;1.40;;;20.50;99.90;;;;;;8351118;28;20053;-65
2021/06/25 13:26:07;;;;;;;2.28;1.60;;;21.10;99.90;;;;;;8368416;28;20025;-67
2021/06/25 13:30:20;;;;;;;1.70;1.60;;;21.60;99.90;;;;;;8338920;28;20119;-66
2021/06/25 13:34:23;;;;;;;1.70;1.60;;;21.80;99.90;;;;;;8373854;28;20028;-66
2021/06/25 13:38:27;;;;;;;2.40;1.40;;;22.50;99.90;;;;;;8356536;28;20155;-66
2021/06/25 13:42:28;;;;;;;1.65;1.55;;;26.40;99.90;;;;;;8373624;28;20112;-67
2021/06/25 13:46:31;;;;;;;2.00;1.80;;;27.10;99.90;;;;;;8409705;22;20055;-65
2021/06/25 13:50:49;;;;;;;1.75;1.60;;;26.10;99.90;;;;;;8390757;28;20054;-66
2021/06/25 13:55:09;;;;;;;4.20;1.50;;;28.90;99.90;;;;;;8389331;28;20036;-66
2021/06/25 13:59:10;;;;;;;1.40;1.30;;;31.60;90.10;;;;;;8375379;28;20059;-67
2021/06/25 14:03:21;;;;;;;1.45;1.35;;;32.40;77.90;;;;;;8385785;28;20043;-65
2021/06/25 14:07:22;;;;;;;1.30;1.20;;;31.90;79.00;;;;;;8389950;28;20043;-66
2021/06/25 14:11:26;;;;;;;1.50;1.40;;;29.70;74.20;;;;;;8388230;28;20586;-66
2021/06/25 14:15:46;;;;;;;1.33;1.23;;;27.30;83.30;;;;;;8391817;28;20016;-66
2021/06/25 14:19:46;;;;;;;1.33;1.23;;;26.20;88.80;;;;;;8391943;28;20078;-66
2021/06/25 14:23:47;;;;;;;2.60;1.13;;;27.70;91.50;;;;;;8387311;28;20060;-66
2021/06/25 14:27:48;;;;;;;2.85;1.15;;;28.90;82.90;;;;;;8364229;28;20118;-66
2021/06/25 14:31:49;;;;;;;1.40;1.30;;;30.50;74.50;;;;;;8373124;28;20071;-68
2021/06/25 14:35:51;;;;;;;1.33;1.20;;;31.00;74.10;;;;;;8379112;28;20083;-66
2021/06/25 14:39:53;;;;;;;1.40;1.20;;;31.00;71.50;;;;;;8375394;28;20020;-66
2021/06/25 14:43:53;;;;;;;1.30;1.20;;;30.30;73.50;;;;;;8360626;28;20065;-66
2021/06/25 14:47:54;;;;;;;1.40;1.30;;;28.90;77.90;;;;;;8359326;28;20035;-66
2021/06/25 14:51:54;;;;;;;1.52;1.30;;;29.80;79.80;;;;;;8379207;28;20406;-66
2021/06/25 14:55:55;;;;;;;1.42;1.33;;;29.40;79.10;;;;;;8389140;28;20035;-66
2021/06/25 14:59:55;;;;;;;1.67;1.58;;;29.80;79.90;;;;;;8371238;28;20021;-66
2021/06/25 15:03:56;;;;;;;1.40;1.30;;;27.30;84.60;;;;;;8373132;28;20021;-66
2021/06/25 15:07:57;;;;;;;1.48;1.30;;;26.30;90.60;;;;;;8368402;28;20123;-66
2021/06/25 15:11:58;;;;;;;2.00;1.30;;;26.20;90.20;;;;;;8369008;28;20491;-67
2021/06/25 15:15:58;;;;;;;1.63;1.40;;;27.70;86.20;;;;;;8397305;28;20024;-66
2021/06/25 15:20:01;;;;;;;2.88;1.60;;;27.10;88.90;;;;;;8396945;28;20486;-66
2021/06/25 15:24:01;;;;;;;1.70;1.40;;;30.20;81.30;;;;;;8379709;28;20355;-67
2021/06/25 15:28:03;;;;;;;1.70;1.58;;;29.00;82.20;;;;;;8378980;28;20087;-67
2021/06/25 15:32:04;;;;;;;2.85;1.40;;;27.40;84.90;;;;;;8380768;28;20588;-66
2021/06/25 15:36:05;;;;;;;1.33;1.17;;;27.70;82.40;;;;;;8393280;28;20071;-66
2021/06/25 15:40:09;;;;;;;1.95;1.60;;;29.20;84.20;;;;;;8393244;28;20167;-67
2021/06/25 15:44:10;;;;;;;1.77;1.40;;;31.60;71.30;;;;;;8396369;28;20033;-66
2021/06/25 15:48:10;;;;;;;3.10;1.30;;;30.10;73.30;;;;;;8396002;28;20036;-66
2021/06/25 15:52:11;;;;;;;2.28;1.50;;;27.80;83.50;;;;;;8396306;28;20074;-67
2021/06/25 15:56:11;;;;;;;1.50;1.40;;;26.60;90.00;;;;;;8397073;28;20020;-66
2021/06/25 16:00:12;;;;;;;1.50;1.40;;;28.30;87.80;;;;;;8396395;28;20060;-66
2021/06/25 16:04:14;;;;;;;1.45;1.35;;;30.50;77.90;;;;;;8396574;28;20111;-66
2021/06/25 16:08:15;;;;;;;1.70;1.60;;;27.10;83.80;;;;;;8395900;28;20025;-66
2021/06/25 16:12:16;;;;;;;2.17;1.70;;;24.70;92.50;;;;;;8395875;28;20020;-66
2021/06/25 16:16:17;;;;;;;2.03;1.80;;;23.60;94.40;;;;;;8396422;28;20660;-66
2021/06/25 16:20:17;;;;;;;1.75;1.60;;;22.80;97.40;;;;;;8395977;28;20021;-66
2021/06/25 16:24:19;;;;;;;1.60;1.50;;;23.50;97.20;;;;;;8395710;28;20033;-66
2021/06/25 16:28:19;;;;;;;1.60;1.50;;;26.10;91.70;;;;;;8395351;28;20024;-66
2021/06/25 16:32:20;;;;;;;1.63;1.52;;;27.80;90.10;;;;;;8395567;28;20028;-66
2021/06/25 16:36:20;;;;;;;1.70;1.52;;;29.50;76.90;;;;;;8395192;28;20102;-66
2021/06/25 16:40:21;;;;;;;1.92;1.60;;;28.90;79.50;;;;;;8393957;28;20032;-67
2021/06/25 16:44:22;;;;;;;1.60;1.50;;;29.50;77.10;;;;;;8394433;28;20056;-66
2021/06/25 16:48:22;;;;;;;1.98;1.63;;;28.60;76.60;;;;;;8392706;28;20102;-67
2021/06/25 16:52:23;;;;;;;3.55;1.88;;;26.30;88.20;;;;;;8393044;28;20549;-66
2021/06/25 16:56:24;;;;;;;1.80;1.70;;;24.90;91.90;;;;;;8392820;28;20024;-66
2021/06/25 17:00:24;;;;;;;2.22;1.63;;;23.90;94.40;;;;;;8393168;28;20108;-66
2021/06/25 17:04:25;;;;;;;4.45;2.95;;;23.30;96.50;;;;;;8391611;28;20044;-66
2021/06/25 17:08:25;;;;;;;2.10;1.88;;;22.70;98.90;;;;;;8392816;28;20086;-66
2021/06/25 17:12:26;;;;;;;2.45;1.98;;;22.60;99.90;;;;;;8391236;28;20375;-66
2021/06/25 17:16:26;;;;;;;2.00;1.80;;;22.60;99.90;;;;;;8392828;28;20032;-66
2021/06/25 17:20:27;;;;;;;4.50;2.00;;;23.10;98.90;;;;;;8392868;28;20032;-67
2021/06/25 17:24:27;;;;;;;2.30;2.10;;;26.80;95.90;;;;;;8390808;28;20744;-66
2021/06/25 17:28:28;;;;;;;3.03;2.70;;;27.40;92.90;;;;;;8392292;28;20037;-65
2021/06/25 17:32:29;;;;;;;3.55;2.80;;;26.60;94.60;;;;;;8391580;28;20016;-67
2021/06/25 17:36:29;;;;;;;2.65;2.45;;;25.80;95.70;;;;;;8359354;28;20100;-66
2021/06/25 17:40:31;;;;;;;2.53;2.33;;;24.80;97.60;;;;;;8359274;28;20474;-67
2021/06/25 17:44:31;;;;;;;2.63;2.42;;;24.60;97.00;;;;;;8359311;28;20036;-66
2021/06/25 17:48:32;;;;;;;2.40;2.17;;;24.40;99.30;;;;;;8357070;28;20056;-66
2021/06/25 17:52:33;;;;;;;3.97;2.25;;;23.70;99.50;;;;;;8363309;28;20107;-66
2021/06/25 17:56:34;;;;;;;3.65;2.70;;;23.10;99.90;;;;;;8391206;28;20031;-66
2021/06/25 18:00:34;;;;;;;3.10;2.80;;;22.50;99.90;;;;;;8392473;28;20028;-66
2021/06/25 18:04:35;;;;;;;3.38;3.08;;;22.30;99.90;;;;;;8392574;28;20039;-66
2021/06/25 18:08:35;;;;;;;3.17;2.88;;;22.20;99.90;;;;;;8391182;28;20414;-66
2021/06/25 18:12:37;;;;;;;4.05;3.40;;;22.40;99.90;;;;;;8392427;28;20020;-65
2021/06/25 18:16:39;;;;;;;3.90;3.50;;;24.40;99.90;;;;;;8392485;28;20029;-67
2021/06/25 18:20:39;;;;;;;4.50;3.38;;;27.00;99.90;;;;;;8391875;28;20397;-66
2021/06/25 18:24:40;;;;;;;4.40;4.00;;;28.40;95.60;;;;;;8391938;28;20039;-65
2021/06/25 18:28:40;;;;;;;6.63;4.88;;;27.40;95.10;;;;;;8391832;28;20043;-66
2021/06/25 18:32:41;;;;;;;5.35;4.63;;;25.50;98.30;;;;;;8390315;28;20024;-66
2021/06/25 18:36:45;;;;;;;5.25;4.75;;;23.90;99.90;;;;;;8393076;28;20039;-66
2021/06/25 18:40:46;;;;;;;5.30;4.80;;;22.80;99.90;;;;;;8392092;28;20056;-66
2021/06/25 18:44:47;;;;;;;5.45;4.78;;;22.00;99.90;;;;;;8391366;28;20111;-66
2021/06/25 18:48:48;;;;;;;6.03;5.40;;;21.40;99.90;;;;;;8391418;28;20031;-66
2021/06/25 18:52:48;;;;;;;5.55;5.05;;;20.70;99.90;;;;;;8389553;28;20029;-66
2021/06/25 18:56:50;;;;;;;5.30;4.80;;;20.30;99.90;;;;;;8391949;28;20032;-65
2021/06/25 19:00:52;;;;;;;8.80;4.80;;;19.90;99.90;;;;;;8390435;28;20034;-67
2021/06/25 19:04:53;;;;;;;6.28;5.00;;;19.60;99.90;;;;;;8391546;28;20025;-67
2021/06/25 19:08:54;;;;;;;6.80;5.13;;;19.30;99.90;;;;;;8387869;28;20031;-67
2021/06/25 19:12:54;;;;;;;5.80;5.20;;;19.00;99.90;;;;;;8375805;28;20024;-66
2021/06/25 19:16:55;;;;;;;5.70;5.20;;;18.90;99.90;;;;;;8364152;28;20090;-66
2021/06/25 19:20:57;;;;;;;7.70;5.32;;;18.90;99.90;;;;;;8371594;28;20426;-66
2021/06/25 19:24:57;;;;;;;5.80;4.95;;;18.90;99.90;;;;;;8372774;28;20029;-67
2021/06/25 19:28:58;;;;;;;5.22;4.72;;;18.80;99.90;;;;;;8370581;28;20498;-66
2021/06/25 19:32:59;;;;;;;7.03;5.18;;;18.90;99.90;;;;;;8377796;28;20027;-66
2021/06/25 19:37:00;;;;;;;6.20;4.68;;;18.70;99.90;;;;;;8381193;28;20028;-66
2021/06/25 19:41:00;;;;;;;6.15;5.40;;;18.30;99.90;;;;;;8383052;28;20406;-71
2021/06/25 19:45:01;;;;;;;5.95;4.60;;;18.10;99.90;;;;;;8391043;28;20036;-70
2021/06/25 19:49:01;;;;;;;5.22;4.72;;;18.30;99.90;;;;;;8396125;28;20296;-70
2021/06/25 19:53:03;;;;;;;6.53;5.03;;;18.20;99.90;;;;;;8397084;28;20021;-70
2021/06/25 19:57:04;;;;;;;5.95;5.13;;;18.00;99.90;;;;;;8396987;28;20021;-70
2021/06/25 20:01:04;;;;;;;5.78;4.75;;;17.90;99.90;;;;;;8397114;28;20032;-69
2021/06/25 20:05:06;;;;;;;5.60;4.65;;;17.60;99.90;;;;;;8393557;28;20054;-71
2021/06/25 20:09:07;;;;;;;7.13;4.85;;;17.50;99.90;;;;;;8383997;28;20111;-66
2021/06/25 20:13:07;;;;;;;6.30;5.18;;;17.40;99.90;;;;;;8382393;28;20486;-65
2021/06/25 20:17:08;;;;;;;6.43;5.63;;;17.50;99.90;;;;;;8383664;28;20094;-66
2021/06/25 20:21:09;;;;;;;6.72;5.78;;;17.40;99.90;;;;;;8380554;28;20512;-66
2021/06/25 20:25:10;;;;;;;7.70;6.57;;;17.30;99.90;;;;;;8380690;28;20467;-65
2021/06/25 20:29:11;;;;;;;8.98;7.20;;;17.20;99.90;;;;;;8365489;28;20057;-65
2021/06/25 20:33:11;;;;;;;9.30;7.10;;;17.20;99.90;;;;;;8386903;28;20609;-65
2021/06/25 20:37:13;;;;;;;8.23;6.45;;;17.10;99.90;;;;;;8377049;28;20394;-65
2021/06/25 20:41:13;;;;;;;9.60;7.35;;;16.90;99.90;;;;;;8377634;28;20020;-66
2021/06/25 20:45:15;;;;;;;8.68;7.03;;;16.60;99.90;;;;;;8367807;28;20089;-66